Time;durP1;ratioP1;P1;durP2;ratioP2;P2;SDS_P1;SDS_P2;PMS_P1;PMS_P2;Temp;Humidity;BMP_temperature;BMP_pressure;BME280_temperature;BME280_humidity;BME280_pressure;Samples;Min_cycle;Max_cycle;Signal;HPM_P1;HPM_P2
2023/07/10 00:01:49;;;;;;;6.72;4.50;;;;;;;28.12;36.42;100553.50;5092974;28;20048;-69
2023/07/10 00:04:19;;;;;;;7.18;4.30;;;;;;;28.09;36.51;100548.41;5093047;28;20048;-69
2023/07/10 00:06:48;;;;;;;6.35;4.50;;;;;;;28.10;36.92;100544.63;5092890;28;20048;-69
2023/07/10 00:09:16;;;;;;;6.65;4.55;;;;;;;28.06;36.96;100538.69;5092687;28;20056;-68
2023/07/10 00:11:46;;;;;;;6.90;4.78;;;;;;;28.07;36.52;100540.38;5092677;28;20043;-68
2023/07/10 00:14:20;;;;;;;6.65;4.38;;;;;;;28.06;36.75;100543.31;5092835;28;20083;-68
2023/07/10 00:16:48;;;;;;;6.88;4.80;;;;;;;28.05;36.70;100536.13;5092729;28;20043;-68
2023/07/10 00:19:17;;;;;;;8.15;4.47;;;;;;;28.03;36.81;100543.72;5092537;28;20044;-68
2023/07/10 00:21:48;;;;;;;6.50;4.23;;;;;;;28.01;36.52;100543.06;5092880;28;20056;-68
2023/07/10 00:24:19;;;;;;;7.03;4.68;;;;;;;27.99;36.79;100543.28;5092425;28;20322;-68
2023/07/10 00:26:47;;;;;;;6.47;4.80;;;;;;;28.00;37.08;100555.09;5092709;28;20082;-70
2023/07/10 00:29:18;;;;;;;6.70;4.78;;;;;;;27.98;36.89;100558.00;5092553;28;20048;-69
2023/07/10 00:31:47;;;;;;;6.25;4.35;;;;;;;27.98;37.36;100551.69;5092272;28;20097;-69
2023/07/10 00:34:17;;;;;;;7.30;4.95;;;;;;;27.95;37.26;100545.56;5092358;28;20084;-69
2023/07/10 00:36:50;;;;;;;8.60;4.55;;;;;;;27.93;37.33;100550.41;5092015;28;20080;-69
2023/07/10 00:39:21;;;;;;;6.28;4.55;;;;;;;27.93;37.38;100544.91;5092230;28;20039;-68
2023/07/10 00:41:54;;;;;;;8.60;5.10;;;;;;;27.90;37.18;100550.81;5092193;28;20129;-69
2023/07/10 00:44:26;;;;;;;6.43;4.72;;;;;;;27.89;37.25;100542.75;5091709;28;20052;-68
2023/07/10 00:47:00;;;;;;;8.30;5.20;;;;;;;27.87;37.36;100547.59;5092142;28;20113;-69
2023/07/10 00:49:38;;;;;;;6.43;4.32;;;;;;;27.85;37.45;100549.69;5091953;28;20079;-69
2023/07/10 00:52:14;;;;;;;7.20;4.88;;;;;;;27.83;37.37;100547.16;5091964;28;20481;-69
2023/07/10 00:54:45;;;;;;;7.63;4.78;;;;;;;27.84;37.39;100546.09;5091909;28;20131;-69
2023/07/10 00:57:16;;;;;;;8.00;4.75;;;;;;;27.82;37.64;100537.22;5091938;28;20044;-69
2023/07/10 00:59:45;;;;;;;7.22;4.85;;;;;;;27.81;37.85;100541.03;5091779;28;20083;-69
2023/07/10 01:02:25;;;;;;;7.75;4.85;;;;;;;27.80;38.23;100539.31;5091826;28;20120;-69
2023/07/10 01:05:03;;;;;;;7.32;5.00;;;;;;;27.78;38.30;100544.13;5091884;28;20075;-69
2023/07/10 01:07:37;;;;;;;7.97;5.15;;;;;;;27.76;38.23;100540.75;5091777;28;20070;-68
2023/07/10 01:10:09;;;;;;;7.75;4.78;;;;;;;27.77;38.08;100550.66;5091401;28;20056;-69
2023/07/10 01:12:38;;;;;;;7.18;5.03;;;;;;;27.76;38.43;100553.59;5091704;28;20444;-69
2023/07/10 01:15:08;;;;;;;7.63;4.60;;;;;;;27.72;38.39;100542.19;5091659;28;20535;-69
2023/07/10 01:17:38;;;;;;;8.45;5.18;;;;;;;27.73;38.60;100549.38;5091589;28;20043;-69
2023/07/10 01:20:29;;;;;;;6.82;5.05;;;;;;;27.72;38.15;100549.56;5091621;28;20039;-69
2023/07/10 01:22:59;;;;;;;6.97;4.78;;;;;;;27.70;38.17;100544.28;5091588;28;20091;-69
2023/07/10 01:25:30;;;;;;;10.02;5.47;;;;;;;27.70;38.20;100543.41;5091379;28;20422;-69
2023/07/10 01:27:58;;;;;;;6.43;4.78;;;;;;;27.68;38.21;100546.34;5091521;28;20055;-68
2023/07/10 01:30:33;;;;;;;7.30;4.95;;;;;;;27.66;38.78;100548.44;5091569;28;20044;-69
2023/07/10 01:33:02;;;;;;;6.53;4.88;;;;;;;27.65;38.80;100552.22;5091549;28;20063;-69
2023/07/10 01:35:33;;;;;;;8.45;5.10;;;;;;;27.63;38.70;100543.34;5091527;28;20466;-69
2023/07/10 01:38:02;;;;;;;7.28;4.85;;;;;;;27.62;38.79;100552.63;5091510;28;20131;-69
2023/07/10 01:40:35;;;;;;;6.90;4.93;;;;;;;27.61;39.09;100545.44;5091342;28;20101;-69
2023/07/10 01:43:04;;;;;;;7.35;5.20;;;;;;;27.60;38.97;100540.97;5091262;28;20051;-69
2023/07/10 01:45:42;;;;;;;7.10;4.65;;;;;;;27.59;38.60;100547.50;5091227;28;20058;-69
2023/07/10 01:48:11;;;;;;;7.38;4.85;;;;;;;27.57;38.62;100544.97;5091281;28;20097;-69
2023/07/10 01:50:39;;;;;;;6.68;5.13;;;;;;;27.57;39.18;100546.84;5091184;28;20529;-69
2023/07/10 01:53:10;;;;;;;8.60;5.13;;;;;;;27.55;38.85;100543.47;5091293;28;20044;-69
2023/07/10 01:55:44;;;;;;;7.38;5.05;;;;;;;27.53;39.36;100553.78;5091270;28;20221;-69
2023/07/10 01:58:13;;;;;;;8.07;4.93;;;;;;;27.53;39.04;100542.81;5095135;28;20052;-69
2023/07/10 02:00:42;;;;;;;6.38;5.10;;;;;;;27.52;38.89;100547.47;5095410;28;20177;-69
2023/07/10 02:03:10;;;;;;;6.60;4.65;;;;;;;27.50;38.96;100543.19;5095241;28;20071;-69
2023/07/10 02:05:38;;;;;;;8.13;5.25;;;;;;;27.48;39.07;100546.13;5095423;28;20460;-69
2023/07/10 02:08:06;;;;;;;6.50;4.88;;;;;;;27.47;39.15;100547.19;5095044;28;20413;-69
2023/07/10 02:10:36;;;;;;;7.15;4.68;;;;;;;27.46;39.18;100537.28;5094932;28;20118;-69
2023/07/10 02:13:12;;;;;;;6.50;5.00;;;;;;;27.45;39.16;100541.06;5095172;28;20048;-69
2023/07/10 02:15:41;;;;;;;6.50;4.80;;;;;;;27.44;39.57;100547.56;5095222;28;20098;-69
2023/07/10 02:18:09;;;;;;;6.03;4.70;;;;;;;27.43;39.69;100539.56;5095033;28;20044;-70
2023/07/10 02:20:39;;;;;;;8.38;5.38;;;;;;;27.43;39.73;100547.78;5094847;28;20044;-69
2023/07/10 02:23:07;;;;;;;8.27;4.97;;;;;;;27.41;39.33;100547.09;5094826;28;20098;-67
2023/07/10 02:25:37;;;;;;;8.00;4.82;;;;;;;27.37;39.41;100539.28;5094749;28;20055;-68
2023/07/10 02:28:06;;;;;;;7.53;5.13;;;;;;;27.37;39.94;100544.75;5094695;28;20074;-69
2023/07/10 02:30:38;;;;;;;7.13;4.75;;;;;;;27.37;39.52;100547.50;5094719;28;20509;-69
2023/07/10 02:33:07;;;;;;;6.45;4.45;;;;;;;27.34;39.93;100545.16;5094742;28;20123;-69
2023/07/10 02:35:35;;;;;;;7.15;4.85;;;;;;;27.34;39.68;100541.56;5094704;28;20048;-69
2023/07/10 02:38:03;;;;;;;7.35;4.95;;;;;;;27.32;40.17;100539.03;5094447;28;20055;-69
2023/07/10 02:40:31;;;;;;;7.07;4.97;;;;;;;27.32;39.77;100540.94;5094504;28;20051;-69
2023/07/10 02:43:01;;;;;;;7.45;4.90;;;;;;;27.30;40.17;100540.25;5094589;28;20066;-69
2023/07/10 02:45:29;;;;;;;6.97;5.20;;;;;;;27.28;40.05;100539.59;5094528;28;20048;-69
2023/07/10 02:47:57;;;;;;;7.03;5.10;;;;;;;27.27;40.12;100544.22;5076589;28;20048;-69
2023/07/10 02:50:26;;;;;;;8.68;5.03;;;;;;;27.25;40.07;100540.84;5094508;28;20052;-69
2023/07/10 02:52:54;;;;;;;6.78;4.68;;;;;;;27.25;40.31;100543.59;5094227;28;20040;-69
2023/07/10 02:55:22;;;;;;;8.43;5.28;;;;;;;27.24;40.15;100541.03;5094442;28;20048;-69
2023/07/10 02:57:50;;;;;;;6.30;4.47;;;;;;;27.23;40.53;100540.19;5094500;28;20408;-69
2023/07/10 03:00:20;;;;;;;7.65;5.40;;;;;;;27.22;40.19;100543.97;5094369;28;20055;-69
2023/07/10 03:02:48;;;;;;;7.50;4.90;;;;;;;27.20;40.15;100548.78;5094164;28;20090;-69
2023/07/10 03:05:16;;;;;;;7.95;5.35;;;;;;;27.19;40.45;100544.34;5093824;28;20454;-69
2023/07/10 03:07:45;;;;;;;8.48;5.32;;;;;;;27.19;40.29;100548.97;5094031;28;20058;-69
2023/07/10 03:10:13;;;;;;;7.20;5.13;;;;;;;27.18;40.56;100547.28;5093865;28;20064;-69
2023/07/10 03:12:41;;;;;;;6.90;5.18;;;;;;;27.15;40.42;100543.03;5093800;28;20044;-69
2023/07/10 03:15:10;;;;;;;7.28;4.72;;;;;;;27.16;40.74;100550.22;5093893;28;20048;-70
2023/07/10 03:17:41;;;;;;;7.88;5.30;;;;;;;27.14;40.85;100555.03;5093654;28;20043;-69
2023/07/10 03:20:11;;;;;;;8.30;5.50;;;;;;;27.13;41.05;100552.50;5093982;28;20535;-69
2023/07/10 03:22:39;;;;;;;7.60;5.30;;;;;;;27.12;41.01;100546.19;5093854;28;20498;-69
2023/07/10 03:25:08;;;;;;;8.05;5.63;;;;;;;27.11;41.06;100549.94;5093768;28;20603;-69
2023/07/10 03:27:36;;;;;;;9.50;4.72;;;;;;;27.09;41.09;100541.06;5093562;28;20044;-69
2023/07/10 03:30:05;;;;;;;8.07;4.97;;;;;;;27.08;40.75;100544.84;5093641;28;20118;-69
2023/07/10 03:32:35;;;;;;;8.95;5.25;;;;;;;27.06;40.81;100542.31;5093518;28;20048;-69
2023/07/10 03:35:06;;;;;;;8.10;5.03;;;;;;;27.06;41.09;100541.47;5093751;28;20055;-69
2023/07/10 03:37:34;;;;;;;8.13;5.07;;;;;;;27.05;40.88;100545.25;5093662;28;20048;-69
2023/07/10 03:40:03;;;;;;;7.72;4.85;;;;;;;27.03;40.79;100531.75;5093278;28;20403;-69
2023/07/10 03:42:31;;;;;;;6.65;4.78;;;;;;;27.03;41.23;100534.50;5093371;28;20459;-69
2023/07/10 03:44:59;;;;;;;8.48;5.07;;;;;;;27.02;41.29;100534.63;5093146;28;20105;-69
2023/07/10 03:47:27;;;;;;;8.18;5.30;;;;;;;27.01;41.15;100528.31;5093595;28;20075;-69
2023/07/10 03:49:55;;;;;;;7.05;5.15;;;;;;;27.00;40.91;100531.25;5093414;28;20113;-69
2023/07/10 03:52:25;;;;;;;6.68;5.13;;;;;;;27.00;41.25;100531.25;5093264;28;20059;-69
2023/07/10 03:54:53;;;;;;;7.53;4.75;;;;;;;26.98;41.41;100528.69;5093069;28;20044;-69
2023/07/10 03:57:21;;;;;;;7.80;5.10;;;;;;;26.97;41.04;100531.63;5092868;28;20044;-69
2023/07/10 03:59:49;;;;;;;8.13;5.38;;;;;;;26.95;41.03;100534.56;5093198;28;20072;-69
2023/07/10 04:02:17;;;;;;;7.10;4.97;;;;;;;26.96;41.32;100535.41;5093039;28;20102;-69
2023/07/10 04:04:45;;;;;;;8.23;5.13;;;;;;;26.94;41.32;100532.03;5092699;28;20051;-69
2023/07/10 04:07:14;;;;;;;7.13;5.05;;;;;;;26.94;41.38;100532.03;5092819;28;20048;-69
2023/07/10 04:09:43;;;;;;;8.40;5.03;;;;;;;26.93;41.25;100530.34;5092613;28;20064;-68
2023/07/10 04:12:11;;;;;;;7.30;4.95;;;;;;;26.93;41.39;100533.06;5092622;28;20044;-68
2023/07/10 04:14:39;;;;;;;6.80;5.18;;;;;;;26.92;41.50;100545.03;5092817;28;20056;-68
2023/07/10 04:17:07;;;;;;;7.05;5.13;;;;;;;26.91;41.78;100533.25;5092687;28;20048;-68
2023/07/10 04:19:36;;;;;;;9.00;5.15;;;;;;;26.91;41.29;100537.88;5092027;28;20074;-68
2023/07/10 04:22:04;;;;;;;9.77;5.57;;;;;;;26.91;41.39;100540.59;5092638;28;20131;-68
2023/07/10 04:24:32;;;;;;;8.38;5.57;;;;;;;26.90;41.29;100539.75;5092327;28;20135;-69
2023/07/10 04:27:05;;;;;;;7.75;5.28;;;;;;;26.89;41.71;100539.94;5092583;28;20055;-68
2023/07/10 04:29:33;;;;;;;9.77;5.40;;;;;;;26.90;41.43;100544.38;5092509;28;20131;-68
2023/07/10 04:32:02;;;;;;;7.60;5.13;;;;;;;26.88;41.71;100539.09;5092355;28;20043;-68
2023/07/10 04:34:30;;;;;;;7.75;5.22;;;;;;;26.88;41.94;100541.84;5092144;28;20105;-68
2023/07/10 04:36:58;;;;;;;9.18;5.18;;;;;;;26.88;41.85;100541.00;5092063;28;20105;-67
2023/07/10 04:39:26;;;;;;;8.63;5.22;;;;;;;26.87;41.43;100542.03;5091997;28;20048;-67
2023/07/10 04:41:55;;;;;;;8.43;5.20;;;;;;;26.86;41.73;100543.94;5092466;28;20044;-68
2023/07/10 04:44:24;;;;;;;9.23;5.38;;;;;;;26.87;41.95;100547.50;5092159;28;20051;-67
2023/07/10 04:46:53;;;;;;;8.57;5.53;;;;;;;26.87;41.66;100544.78;5091919;28;20043;-68
2023/07/10 04:49:21;;;;;;;6.63;4.70;;;;;;;26.85;42.13;100550.44;5091848;28;20040;-68
2023/07/10 04:51:49;;;;;;;7.78;5.47;;;;;;;26.85;41.91;100544.13;5091902;28;20048;-68
2023/07/10 04:54:17;;;;;;;9.73;5.47;;;;;;;26.85;41.74;100544.13;5092213;28;20097;-68
2023/07/10 04:56:46;;;;;;;7.93;5.03;;;;;;;26.85;42.06;100546.88;5092054;28;20522;-67
2023/07/10 04:59:14;;;;;;;7.97;5.30;;;;;;;26.85;42.16;100547.72;5091912;28;20413;-68
2023/07/10 05:01:44;;;;;;;7.75;5.00;;;;;;;26.83;41.76;100547.06;5091950;28;20047;-68
2023/07/10 05:04:12;;;;;;;8.18;5.07;;;;;;;26.85;41.95;100544.97;5091545;28;20080;-68
2023/07/10 05:06:40;;;;;;;8.63;5.30;;;;;;;26.82;42.28;100537.97;5091836;28;20084;-68
2023/07/10 05:09:08;;;;;;;9.13;5.15;;;;;;;26.83;42.17;100547.06;5091731;28;20048;-67
2023/07/10 05:11:36;;;;;;;9.50;5.25;;;;;;;26.84;42.11;100553.38;5091792;28;20121;-69
2023/07/10 05:14:05;;;;;;;10.35;5.88;;;;;;;26.83;41.90;100552.53;5091828;28;20047;-69
2023/07/10 05:16:33;;;;;;;8.90;5.13;;;;;;;26.83;42.02;100558.00;5091476;28;20060;-69
2023/07/10 05:19:03;;;;;;;8.65;5.68;;;;;;;26.84;42.31;100553.38;5091468;28;20039;-69
2023/07/10 05:21:31;;;;;;;10.70;5.47;;;;;;;26.82;42.29;100554.38;5091679;28;20044;-69
2023/07/10 05:24:00;;;;;;;9.02;5.40;;;;;;;26.82;42.30;100550.81;5091635;28;20177;-68
2023/07/10 05:26:28;;;;;;;9.70;5.90;;;;;;;26.83;42.40;100552.53;5091370;28;20047;-68
2023/07/10 05:28:56;;;;;;;9.23;5.28;;;;;;;26.84;42.14;100553.38;5091458;28;20101;-68
2023/07/10 05:31:24;;;;;;;9.80;5.18;;;;;;;26.84;42.11;100550.63;5090553;28;20040;-69
2023/07/10 05:33:52;;;;;;;11.60;5.55;;;;;;;26.85;42.04;100549.59;5091337;28;20039;-69
2023/07/10 05:36:22;;;;;;;9.88;5.47;;;;;;;26.84;42.04;100558.84;5091516;28;20155;-68
2023/07/10 05:38:50;;;;;;;8.57;5.53;;;;;;;26.85;42.49;100555.06;5091470;28;20091;-68
2023/07/10 05:41:20;;;;;;;9.65;5.50;;;;;;;26.85;42.43;100560.53;5091407;28;20390;-69
2023/07/10 05:43:48;;;;;;;10.55;5.63;;;;;;;26.83;42.24;100555.28;5091114;28;20044;-69
2023/07/10 05:46:17;;;;;;;9.77;5.93;;;;;;;26.84;42.22;100561.59;5090969;28;20052;-68
2023/07/10 05:48:46;;;;;;;9.82;5.70;;;;;;;26.85;42.69;100560.53;5091246;28;20131;-67
2023/07/10 05:51:14;;;;;;;8.55;5.22;;;;;;;26.85;42.73;100552.34;5091378;28;20048;-69
2023/07/10 05:53:46;;;;;;;10.68;5.75;;;;;;;26.85;42.72;100555.91;5091145;28;20113;-69
2023/07/10 05:56:14;;;;;;;10.70;5.65;;;;;;;26.84;42.38;100556.13;5091055;28;20047;-68
2023/07/10 05:58:42;;;;;;;8.95;5.55;;;;;;;26.84;42.59;100554.22;5090908;28;20055;-69
2023/07/10 06:01:12;;;;;;;8.20;5.53;;;;;;;26.84;42.86;100554.22;5091279;28;20094;-69
2023/07/10 06:03:40;;;;;;;8.00;5.15;;;;;;;26.84;42.24;100551.50;5091016;28;20078;-68
2023/07/10 06:06:09;;;;;;;8.60;5.85;;;;;;;26.85;42.60;100553.19;5090925;28;20052;-69
2023/07/10 06:08:38;;;;;;;9.20;5.25;;;;;;;26.86;42.36;100551.28;5091033;28;20071;-68
2023/07/10 06:11:09;;;;;;;7.95;5.07;;;;;;;26.87;42.45;100550.25;5090862;28;20044;-69
2023/07/10 06:13:37;;;;;;;8.65;5.55;;;;;;;26.86;42.21;100543.94;5091329;28;20051;-69
2023/07/10 06:16:08;;;;;;;7.65;5.25;;;;;;;26.88;42.45;100543.72;5091009;28;20044;-69
2023/07/10 06:18:38;;;;;;;9.80;5.53;;;;;;;26.86;42.62;100541.19;5091141;28;20385;-69
2023/07/10 06:21:06;;;;;;;11.70;5.55;;;;;;;26.88;42.33;100539.09;5090994;28;20048;-69
2023/07/10 06:23:35;;;;;;;8.43;5.53;;;;;;;26.88;42.48;100544.56;5090830;28;20433;-69
2023/07/10 06:26:04;;;;;;;9.30;5.32;;;;;;;26.89;42.50;100545.44;5090754;28;20137;-69
2023/07/10 06:28:34;;;;;;;9.50;5.45;;;;;;;26.89;42.67;100545.44;5090828;28;20507;-68
2023/07/10 06:31:05;;;;;;;8.95;5.68;;;;;;;26.89;43.00;100535.31;5090851;28;20044;-69
2023/07/10 06:33:34;;;;;;;9.48;5.47;;;;;;;26.89;42.85;100540.81;5090827;28;20052;-69
2023/07/10 06:36:04;;;;;;;10.25;5.55;;;;;;;26.89;42.99;100535.31;5090701;28;20052;-68
2023/07/10 06:38:33;;;;;;;7.60;5.43;;;;;;;26.91;42.62;100543.34;5090453;28;20048;-68
2023/07/10 06:41:01;;;;;;;6.82;4.93;;;;;;;26.91;42.76;100543.34;5090550;28;20044;-69
2023/07/10 06:43:30;;;;;;;8.38;5.28;;;;;;;26.92;42.65;100534.94;5092869;28;20044;-68
2023/07/10 06:45:59;;;;;;;8.93;5.53;;;;;;;26.91;43.08;100529.66;5093741;28;20056;-68
2023/07/10 06:48:28;;;;;;;7.65;5.25;;;;;;;26.93;43.34;100535.81;5076469;28;20091;-68
2023/07/10 06:50:57;;;;;;;9.20;5.30;;;;;;;26.91;43.06;100524.19;5094229;28;20082;-68
2023/07/10 06:53:26;;;;;;;7.28;5.45;;;;;;;26.94;43.25;100532.03;5094117;28;20070;-66
2023/07/10 06:55:58;;;;;;;7.75;5.68;;;;;;;26.94;42.93;100538.34;5094403;28;20079;-68
2023/07/10 06:58:30;;;;;;;9.02;5.70;;;;;;;26.94;43.48;100532.88;5094239;28;20082;-67
2023/07/10 07:01:00;;;;;;;8.38;5.88;;;;;;;26.95;43.36;100541.94;5094087;28;20165;-69
2023/07/10 07:03:31;;;;;;;9.32;5.57;;;;;;;26.95;43.35;100528.25;5093971;28;20044;-67
2023/07/10 07:06:00;;;;;;;10.32;5.68;;;;;;;26.96;43.17;100532.69;5094018;28;20048;-67
2023/07/10 07:08:28;;;;;;;9.07;5.50;;;;;;;26.97;43.11;100523.41;5076265;28;20089;-67
2023/07/10 07:10:57;;;;;;;8.13;5.40;;;;;;;26.98;43.18;100525.13;5073802;28;20053;-66
2023/07/10 07:13:25;;;;;;;8.65;5.43;;;;;;;27.01;43.67;100527.47;5073534;28;20042;-67
2023/07/10 07:15:55;;;;;;;7.20;4.80;;;;;;;27.01;43.23;100522.84;5073302;28;20072;-68
2023/07/10 07:18:26;;;;;;;8.48;5.57;;;;;;;27.02;43.17;100519.13;5073581;28;20040;-69
2023/07/10 07:20:56;;;;;;;9.30;5.57;;;;;;;27.03;43.25;100509.00;5073599;28;20044;-70
2023/07/10 07:23:25;;;;;;;7.75;5.60;;;;;;;27.03;43.24;100519.97;5073406;28;20048;-68
2023/07/10 07:25:54;;;;;;;9.88;5.57;;;;;;;27.05;43.18;100507.78;5073138;28;20052;-70
2023/07/10 07:28:22;;;;;;;7.85;5.30;;;;;;;27.06;43.82;100508.63;5073216;28;20076;-63
2023/07/10 07:30:50;;;;;;;9.52;5.88;;;;;;;27.08;43.58;100501.91;5072784;28;20048;-65
2023/07/10 07:33:20;;;;;;;10.85;6.07;;;;;;;27.13;44.42;100511.44;5073397;28;20090;-65
2023/07/10 07:35:50;;;;;;;11.88;6.00;;;;;;;27.15;45.06;100507.47;5073123;28;20044;-67
2023/07/10 07:38:18;;;;;;;11.23;6.22;;;;;;;27.17;45.28;100510.84;5059409;28;20103;-68
2023/07/10 07:40:46;;;;;;;9.88;5.75;;;;;;;27.18;45.33;100506.22;5053080;28;20103;-69
2023/07/10 07:43:14;;;;;;;11.18;6.00;;;;;;;27.20;44.98;100513.19;5052834;28;20056;-70
2023/07/10 07:45:51;;;;;;;10.38;6.35;;;;;;;27.19;44.58;100503.28;5052797;28;20117;-68
2023/07/10 07:48:19;;;;;;;9.90;5.80;;;;;;;27.22;44.97;100500.16;5053046;28;20058;-65
2023/07/10 07:51:01;;;;;;;9.13;5.45;;;;;;;27.23;45.15;100512.81;5053112;28;20088;-67
2023/07/10 07:53:31;;;;;;;38.15;6.88;;;;;;;27.25;45.46;100501.66;5052482;28;20045;-68
2023/07/10 07:55:59;;;;;;;14.85;6.38;;;;;;;27.25;45.03;100502.50;5052861;28;20127;-67
2023/07/10 07:58:28;;;;;;;15.00;6.28;;;;;;;27.27;45.27;100505.91;5052886;28;20061;-64
2023/07/10 08:00:56;;;;;;;16.65;6.28;;;;;;;27.28;44.67;100502.09;5052858;28;20091;-69
2023/07/10 08:03:25;;;;;;;13.32;6.10;;;;;;;27.30;44.73;100494.53;5052947;28;20049;-72
2023/07/10 08:05:54;;;;;;;14.95;5.95;;;;;;;27.31;45.04;100496.25;5052581;28;20104;-71
2023/07/10 08:08:25;;;;;;;13.00;6.13;;;;;;;27.32;45.04;100489.75;5052592;28;20483;-68
2023/07/10 08:10:53;;;;;;;11.73;5.65;;;;;;;27.32;44.68;100487.00;5052864;28;20071;-67
2023/07/10 08:13:22;;;;;;;10.82;6.72;;;;;;;27.34;45.10;100484.91;5052832;28;20045;-67
2023/07/10 08:15:50;;;;;;;11.70;6.03;;;;;;;27.36;44.95;100479.22;5052643;28;20048;-68
2023/07/10 08:18:18;;;;;;;13.07;6.45;;;;;;;27.37;44.60;100481.78;5052530;28;20059;-68
2023/07/10 08:20:46;;;;;;;11.82;5.95;;;;;;;27.39;45.12;100487.88;5052201;28;20045;-68
2023/07/10 08:23:15;;;;;;;7.95;5.05;;;;;;;27.44;44.76;100494.69;5052317;28;20130;-67
2023/07/10 08:25:46;;;;;;;8.20;5.55;;;;;;;27.48;44.71;100488.59;5052561;28;20041;-70
2023/07/10 08:28:14;;;;;;;7.25;5.45;;;;;;;27.52;44.29;100480.88;5052338;28;20048;-72
2023/07/10 08:30:43;;;;;;;7.65;5.10;;;;;;;27.53;44.38;100468.84;5051787;28;20123;-73
2023/07/10 08:33:11;;;;;;;7.22;5.47;;;;;;;27.52;44.14;100475.38;5052261;28;20053;-74
2023/07/10 08:35:39;;;;;;;9.00;5.03;;;;;;;27.52;43.74;100469.91;5051958;28;20057;-74
2023/07/10 08:38:07;;;;;;;8.15;4.93;;;;;;;27.54;43.58;100478.78;5051556;28;20056;-74
2023/07/10 08:40:38;;;;;;;9.00;5.15;;;;;;;27.55;43.48;100466.75;5049904;28;20084;-74
2023/07/10 08:43:26;;;;;;;7.57;4.85;;;;;;;27.53;43.62;100468.84;5050974;28;20118;-74
2023/07/10 08:46:04;;;;;;;7.30;4.47;;;;;;;27.54;43.50;100465.06;5050910;28;20517;-75
2023/07/10 08:48:40;;;;;;;6.25;4.43;;;;;;;27.56;43.80;100461.06;5050765;28;20136;-74
2023/07/10 08:51:16;;;;;;;5.88;4.15;;;;;;;27.56;43.53;100450.13;5051079;28;20079;-74
2023/07/10 08:53:56;;;;;;;7.45;5.10;;;;;;;27.56;43.93;100452.84;5050802;28;20045;-73
2023/07/10 08:56:29;;;;;;;8.90;5.18;;;;;;;27.58;43.62;100455.41;5051343;28;20052;-74
2023/07/10 08:59:09;;;;;;;8.13;4.40;;;;;;;27.60;43.20;100469.75;5051906;28;20279;-74
2023/07/10 09:01:42;;;;;;;7.00;4.43;;;;;;;27.59;43.32;100466.16;5051478;28;20106;-75
2023/07/10 09:04:14;;;;;;;7.70;4.38;;;;;;;27.62;43.70;100459.44;5051733;28;20558;-75
2023/07/10 09:06:46;;;;;;;6.50;4.50;;;;;;;27.64;43.69;100454.63;5051293;28;20052;-73
2023/07/10 09:09:23;;;;;;;;;;;;;;;27.64;43.50;100452.72;5064930;28;20131;-75
2023/07/10 09:11:53;;;;;;;6.50;4.32;;;;;;;27.65;43.38;100456.31;5091736;28;20372;-76
2023/07/10 09:14:31;;;;;;;6.63;4.45;;;;;;;27.67;43.20;100467.94;5091898;28;20040;-75
2023/07/10 09:17:00;;;;;;;6.35;4.45;;;;;;;27.69;43.49;100448.56;5091744;28;20052;-75
2023/07/10 09:19:31;;;;;;;6.63;4.60;;;;;;;27.70;43.18;100467.56;5091545;28;20048;-73
2023/07/10 09:21:59;;;;;;;4.97;3.60;;;;;;;27.70;43.53;100464.81;5091664;28;20055;-75
2023/07/10 09:24:27;;;;;;;6.75;4.00;;;;;;;27.74;43.23;100457.88;5091680;28;20437;-75
2023/07/10 09:26:56;;;;;;;6.72;4.22;;;;;;;27.76;42.97;100454.94;5091265;28;20044;-74
2023/07/10 09:29:34;;;;;;;6.30;4.22;;;;;;;27.78;43.36;100458.31;5090903;28;20063;-75
2023/07/10 09:32:10;;;;;;;6.68;3.92;;;;;;;27.78;43.38;100448.22;5091121;28;20432;-75
2023/07/10 09:34:43;;;;;;;5.40;4.07;;;;;;;27.80;43.13;100435.19;5091588;28;20416;-75
2023/07/10 09:37:13;;;;;;;5.93;4.35;;;;;;;27.81;43.14;100430.53;5091397;28;20054;-74
2023/07/10 09:39:41;;;;;;;5.72;3.90;;;;;;;27.83;43.21;100428.44;5091224;28;20454;-74
2023/07/10 09:42:14;;;;;;;5.90;4.05;;;;;;;27.85;43.28;100421.69;5091129;28;20132;-75
2023/07/10 09:44:51;;;;;;;6.40;4.28;;;;;;;27.87;43.63;100419.59;5091215;28;20078;-75
2023/07/10 09:47:21;;;;;;;5.43;3.97;;;;;;;27.89;43.42;100423.00;5073162;28;20405;-74
2023/07/10 09:49:53;;;;;;;6.10;4.15;;;;;;;27.91;43.36;100425.56;5091446;28;20051;-74
2023/07/10 09:52:24;;;;;;;6.55;4.30;;;;;;;27.92;43.31;100417.13;5091772;28;20052;-75
2023/07/10 09:55:04;;;;;;;6.25;4.40;;;;;;;27.96;43.68;100423.03;5091207;28;20048;-75
2023/07/10 09:57:32;;;;;;;5.95;3.70;;;;;;;27.99;43.62;100416.28;5091261;28;20131;-74
2023/07/10 10:00:03;;;;;;;5.30;3.80;;;;;;;28.00;43.75;100429.84;5091157;28;20051;-74
2023/07/10 10:02:46;;;;;;;6.03;4.15;;;;;;;28.02;43.48;100418.66;5091176;28;20048;-74
2023/07/10 10:05:19;;;;;;;5.57;4.10;;;;;;;28.05;43.35;100415.50;5091134;28;20097;-74
2023/07/10 10:07:49;;;;;;;6.03;4.03;;;;;;;28.06;43.55;100406.22;5090871;28;20501;-74
2023/07/10 10:10:24;;;;;;;6.95;4.38;;;;;;;28.08;43.22;100404.13;5090930;28;20135;-75
2023/07/10 10:13:02;;;;;;;4.97;3.67;;;;;;;28.09;43.46;100406.69;5091041;28;20560;-75
2023/07/10 10:15:40;;;;;;;5.20;4.00;;;;;;;28.12;43.63;100419.97;5091008;28;20048;-74
2023/07/10 10:18:20;;;;;;;6.80;4.20;;;;;;;28.15;43.31;100397.63;5093157;28;20084;-75
2023/07/10 10:20:49;;;;;;;6.13;3.85;;;;;;;28.15;43.74;100383.06;5094788;28;20047;-75
2023/07/10 10:23:33;;;;;;;5.53;3.80;;;;;;;28.19;43.78;100390.69;5095002;28;20044;-76
2023/07/10 10:26:31;;;;;;;7.75;4.20;;;;;;;28.22;43.27;100400.41;5094901;28;20040;-75
2023/07/10 10:29:15;;;;;;;6.03;4.05;;;;;;;28.24;43.42;100396.41;5093808;28;20114;-75
2023/07/10 10:31:53;;;;;;;5.95;4.00;;;;;;;28.27;43.67;100397.88;5094924;28;20045;-76
2023/07/10 10:34:32;;;;;;;7.93;4.50;;;;;;;28.30;43.61;100392.06;5094716;28;20405;-76
2023/07/10 10:37:18;;;;;;;5.88;4.05;;;;;;;28.34;43.39;100376.84;5094455;28;20048;-75
2023/07/10 10:39:58;;;;;;;5.40;4.10;;;;;;;28.37;43.25;100381.09;5094668;28;20135;-75
2023/07/10 10:42:33;;;;;;;6.65;4.00;;;;;;;28.38;42.98;100383.66;5094310;28;20048;-75
2023/07/10 10:45:12;;;;;;;6.72;3.88;;;;;;;28.41;43.36;100377.75;5076231;28;20051;-74
2023/07/10 10:47:50;;;;;;;5.45;3.90;;;;;;;28.44;43.48;100380.06;5094514;28;20404;-75
2023/07/10 10:50:37;;;;;;;5.97;4.25;;;;;;;28.46;42.87;100377.94;5094397;28;20139;-75
2023/07/10 10:53:20;;;;;;;5.25;3.78;;;;;;;28.48;43.06;100386.00;5094404;28;20044;-74
2023/07/10 10:55:58;;;;;;;6.20;4.13;;;;;;;28.51;42.83;100378.19;5094459;28;20131;-75
2023/07/10 10:58:44;;;;;;;5.72;3.75;;;;;;;28.57;43.06;100375.66;5094288;28;20079;-75
2023/07/10 11:01:26;;;;;;;5.65;4.18;;;;;;;28.57;42.78;100376.53;5094076;28;20516;-75
2023/07/10 11:04:02;;;;;;;5.50;3.60;;;;;;;28.62;43.19;100367.66;5094052;28;20048;-74
2023/07/10 11:06:51;;;;;;;5.22;3.83;;;;;;;28.64;42.84;100368.31;5093991;28;20481;-75
2023/07/10 11:09:24;;;;;;;5.78;3.63;;;;;;;28.67;43.11;100367.91;5093858;28;20068;-76
2023/07/10 11:11:54;;;;;;;5.35;3.85;;;;;;;28.69;42.87;100357.56;5093979;28;20102;-75
2023/07/10 11:14:22;;;;;;;5.53;3.83;;;;;;;28.70;43.19;100348.28;5093807;28;20044;-74
2023/07/10 11:16:54;;;;;;;6.68;4.00;;;;;;;28.73;42.79;100348.69;5094099;28;20048;-75
2023/07/10 11:19:29;;;;;;;5.47;3.90;;;;;;;28.76;42.93;100340.06;5093960;28;20044;-76
2023/07/10 11:22:09;;;;;;;5.45;3.97;;;;;;;28.74;42.91;100344.03;5093898;28;20056;-75
2023/07/10 11:24:38;;;;;;;5.32;3.67;;;;;;;28.84;43.11;100355.47;5093683;28;20182;-73
2023/07/10 11:27:13;;;;;;;7.80;4.13;;;;;;;28.87;43.11;100349.56;5093452;28;20048;-76
2023/07/10 11:29:43;;;;;;;5.63;3.78;;;;;;;28.91;42.84;100350.03;5093379;28;20055;-75
2023/07/10 11:32:17;;;;;;;6.63;4.10;;;;;;;28.95;42.77;100346.66;5093521;28;20052;-73
2023/07/10 11:35:13;;;;;;;5.80;4.00;;;;;;;28.98;43.20;100340.75;5093249;28;20147;-75
2023/07/10 11:38:17;;;;;;;5.22;3.90;;;;;;;29.02;42.89;100344.75;5093643;28;20047;-75
2023/07/10 11:41:03;;;;;;;5.80;3.83;;;;;;;29.05;42.88;100338.84;5093178;28;20048;-74
2023/07/10 11:44:10;;;;;;;5.57;3.95;;;;;;;29.08;42.95;100346.66;5092973;28;20044;-75